Time;durP1;ratioP1;P1;durP2;ratioP2;P2;SDS_P1;SDS_P2;PMS_P1;PMS_P2;Temp;Humidity;BMP_temperature;BMP_pressure;BME280_temperature;BME280_humidity;BME280_pressure;Samples;Min_cycle;Max_cycle;Signal;HPM_P1;HPM_P2
2022/12/22 05:51:42;;;;;;;1.23;1.00;;;19.70;99.40;;;;;;5564856;23;20319;-71
2022/12/22 05:54:09;;;;;;;3.35;0.85;;;19.80;99.90;;;;;;4901736;29;20723;-71
2022/12/22 05:56:36;;;;;;;5.32;1.30;;;19.70;99.90;;;;;;4901385;29;20669;-71
2022/12/22 05:59:03;;;;;;;6.03;0.93;;;19.70;99.90;;;;;;4901638;29;20197;-71
2022/12/22 06:01:30;;;;;;;7.60;1.08;;;19.70;99.90;;;;;;4901372;29;20221;-70
2022/12/22 06:03:57;;;;;;;24.52;1.27;;;19.80;99.90;;;;;;4901335;29;20206;-70
2022/12/22 06:06:23;;;;;;;2.78;0.77;;;19.80;98.30;;;;;;4901516;29;20213;-70
2022/12/22 06:08:51;;;;;;;3.10;0.93;;;19.70;97.80;;;;;;4901241;29;20295;-70
2022/12/22 06:11:18;;;;;;;4.10;0.95;;;19.70;98.00;;;;;;4901283;29;20225;-70
2022/12/22 06:13:45;;;;;;;7.10;1.00;;;19.70;98.10;;;;;;4901346;29;20209;-70
2022/12/22 06:16:12;;;;;;;5.35;0.90;;;19.70;98.10;;;;;;4901304;29;20209;-70
2022/12/22 06:18:39;;;;;;;4.15;0.77;;;19.80;98.50;;;;;;4901006;29;20674;-69
2022/12/22 06:21:05;;;;;;;3.10;1.08;;;19.70;98.60;;;;;;4901190;29;20225;-69
2022/12/22 06:23:32;;;;;;;4.53;0.90;;;19.70;98.60;;;;;;4901202;29;20213;-69
2022/12/22 06:26:01;;;;;;;3.40;0.98;;;19.70;98.80;;;;;;4901147;29;20212;-69
2022/12/22 06:28:29;;;;;;;6.70;1.00;;;19.70;99.10;;;;;;4901052;29;20221;-69
2022/12/22 06:30:56;;;;;;;1.98;0.70;;;19.60;99.10;;;;;;4900991;29;20205;-69
2022/12/22 06:33:22;;;;;;;6.72;0.93;;;19.60;99.20;;;;;;4900980;29;20213;-70
2022/12/22 06:35:49;;;;;;;1.33;0.77;;;19.60;99.50;;;;;;4900965;29;20220;-70
2022/12/22 06:38:16;;;;;;;4.25;0.88;;;19.60;99.30;;;;;;4900635;29;20557;-70
2022/12/22 06:40:42;;;;;;;2.00;0.93;;;19.60;99.50;;;;;;4900826;29;20622;-70
2022/12/22 06:43:09;;;;;;;4.40;0.75;;;19.60;99.80;;;;;;4900880;29;20213;-71
2022/12/22 06:45:38;;;;;;;5.32;0.95;;;19.60;99.90;;;;;;4900720;29;20577;-71
2022/12/22 06:48:05;;;;;;;3.47;0.70;;;19.60;99.90;;;;;;4900689;29;20213;-71
2022/12/22 06:50:32;;;;;;;2.28;0.70;;;19.70;99.90;;;;;;4900689;29;20212;-71
2022/12/22 06:52:59;;;;;;;1.70;0.80;;;19.70;99.90;;;;;;4900275;29;20229;-70
2022/12/22 06:55:25;;;;;;;3.47;0.75;;;19.80;99.90;;;;;;4900309;29;20229;-70
2022/12/22 06:57:52;;;;;;;6.15;0.90;;;19.80;99.90;;;;;;4900576;29;20206;-70
2022/12/22 07:00:21;;;;;;;0.77;0.77;;;19.80;99.90;;;;;;4900257;29;20721;-70
2022/12/22 07:02:48;;;;;;;2.17;0.65;;;19.70;99.90;;;;;;4900185;29;20713;-70
2022/12/22 07:05:15;;;;;;;1.75;0.77;;;19.70;99.90;;;;;;4900467;29;20201;-70
2022/12/22 07:07:42;;;;;;;2.60;0.90;;;19.70;99.90;;;;;;4900396;29;20205;-71
2022/12/22 07:10:09;;;;;;;2.60;0.80;;;19.70;99.90;;;;;;4900859;29;20237;-71
2022/12/22 07:12:36;;;;;;;5.78;0.80;;;19.70;99.90;;;;;;4900272;29;20236;-70
2022/12/22 07:15:03;;;;;;;0.80;0.80;;;19.70;99.90;;;;;;4900317;29;20205;-70
2022/12/22 07:17:31;;;;;;;3.60;0.85;;;19.80;99.90;;;;;;4899894;29;20618;-70
2022/12/22 07:19:58;;;;;;;3.50;0.77;;;19.70;99.90;;;;;;4899929;29;20546;-70
2022/12/22 07:22:25;;;;;;;1.08;0.70;;;19.70;99.90;;;;;;4900095;29;20233;-70
2022/12/22 07:24:51;;;;;;;0.98;0.77;;;19.70;99.90;;;;;;4900105;29;20257;-70
2022/12/22 07:27:18;;;;;;;1.35;0.80;;;19.80;99.90;;;;;;4900131;29;20613;-70
2022/12/22 07:29:45;;;;;;;3.08;1.13;;;19.80;99.90;;;;;;4900215;29;20222;-70
2022/12/22 07:32:11;;;;;;;0.70;0.70;;;19.80;99.90;;;;;;4899895;29;20225;-70
2022/12/22 07:34:39;;;;;;;5.88;1.13;;;19.80;99.90;;;;;;4899935;29;20205;-70
2022/12/22 07:37:06;;;;;;;2.20;0.80;;;19.70;99.90;;;;;;4900645;29;20206;-70
2022/12/22 07:39:33;;;;;;;3.20;0.77;;;19.70;99.90;;;;;;4899802;29;20213;-70
2022/12/22 07:44:44;;;;;;;1.40;0.70;;;19.60;99.90;;;;;;4900088;29;20265;-70
2022/12/22 07:47:10;;;;;;;0.75;0.70;;;19.60;99.90;;;;;;4899749;29;20209;-70
2022/12/22 07:52:22;;;;;;;2.67;0.70;;;19.60;99.90;;;;;;4899327;29;20232;-71
2022/12/22 07:54:49;;;;;;;3.13;1.02;;;19.60;99.90;;;;;;4899118;29;20584;-72
2022/12/22 07:57:16;;;;;;;4.38;1.25;;;19.60;99.90;;;;;;4900542;29;20244;-71
2022/12/22 07:59:42;;;;;;;0.95;0.70;;;19.60;99.90;;;;;;4899432;29;20201;-71
2022/12/22 08:02:11;;;;;;;2.95;0.50;;;19.60;99.90;;;;;;4899298;29;20236;-71
2022/12/22 08:04:39;;;;;;;4.93;0.90;;;19.70;99.90;;;;;;4898839;29;20217;-71
2022/12/22 08:07:06;;;;;;;5.70;0.95;;;19.70;99.90;;;;;;4899020;29;20748;-70
2022/12/22 08:09:32;;;;;;;1.88;0.70;;;19.80;99.90;;;;;;4899225;29;20221;-71
2022/12/22 08:11:59;;;;;;;3.22;0.95;;;19.80;99.90;;;;;;4899173;29;20229;-71
2022/12/22 08:14:26;;;;;;;1.98;0.75;;;19.80;99.90;;;;;;4899200;29;20224;-69
2022/12/22 08:16:52;;;;;;;0.60;0.60;;;19.80;99.90;;;;;;4899156;29;20210;-69
2022/12/22 08:19:19;;;;;;;3.60;0.60;;;19.80;99.90;;;;;;4899408;29;20257;-69
2022/12/22 08:21:47;;;;;;;4.22;0.75;;;19.80;99.90;;;;;;4899031;29;20352;-69
2022/12/22 08:24:14;;;;;;;2.83;1.02;;;19.80;99.90;;;;;;4899064;29;20240;-69
2022/12/22 08:26:42;;;;;;;2.55;0.90;;;19.80;99.90;;;;;;4899013;29;20242;-69
2022/12/22 08:29:15;;;;;;;3.70;1.05;;;19.80;99.90;;;;;;4898887;29;20260;-68
2022/12/22 08:31:42;;;;;;;12.82;1.73;;;19.80;99.90;;;;;;4898897;29;20233;-69
2022/12/22 08:34:12;;;;;;;4.13;0.90;;;19.80;99.90;;;;;;4898913;29;20213;-69
2022/12/22 08:36:41;;;;;;;7.65;1.35;;;19.80;99.90;;;;;;4898850;29;20622;-69
2022/12/22 08:39:10;;;;;;;10.20;1.27;;;19.80;99.90;;;;;;4898847;29;20202;-69
2022/12/22 08:41:52;;;;;;;7.55;1.10;;;19.80;99.90;;;;;;4898723;29;20252;-70
2022/12/22 08:44:21;;;;;;;16.92;1.70;;;19.80;99.90;;;;;;4898754;29;20539;-69
2022/12/22 08:46:48;;;;;;;23.60;9.15;;;19.80;99.90;;;;;;4898711;29;20212;-70
2022/12/22 08:49:15;;;;;;;17.92;7.18;;;19.80;99.90;;;;;;4898319;29;20697;-70
2022/12/22 08:51:41;;;;;;;13.25;4.03;;;19.80;99.90;;;;;;4898901;29;20237;-69
2022/12/22 08:54:09;;;;;;;19.27;5.32;;;19.90;99.90;;;;;;4898424;29;20218;-69
2022/12/22 08:56:37;;;;;;;15.38;3.95;;;19.90;99.90;;;;;;4898330;29;20737;-69
2022/12/22 08:59:06;;;;;;;22.60;5.03;;;19.80;99.90;;;;;;4898604;29;20224;-69
2022/12/22 09:01:34;;;;;;;10.38;4.60;;;19.80;99.90;;;;;;4898437;29;20664;-69
2022/12/22 09:04:01;;;;;;;13.80;3.63;;;19.80;99.90;;;;;;4898554;29;20209;-69
2022/12/22 09:06:28;;;;;;;14.05;4.63;;;19.80;99.90;;;;;;4898521;29;20209;-69
2022/12/22 09:08:55;;;;;;;17.20;4.65;;;19.70;99.90;;;;;;4898406;29;20202;-71
2022/12/22 09:11:23;;;;;;;11.68;4.20;;;19.70;99.90;;;;;;4898441;29;20221;-71
2022/12/22 09:13:51;;;;;;;11.07;3.80;;;19.70;99.90;;;;;;4898520;29;20213;-69
2022/12/22 09:16:19;;;;;;;15.02;3.85;;;19.70;99.90;;;;;;4902072;29;20725;-69
2022/12/22 09:18:46;;;;;;;14.68;4.20;;;19.80;99.90;;;;;;4902060;29;20670;-69
2022/12/22 09:21:13;;;;;;;10.07;3.15;;;19.80;99.90;;;;;;4902279;29;20304;-70
2022/12/22 09:23:39;;;;;;;13.65;3.65;;;19.80;99.90;;;;;;4902304;29;20189;-71
2022/12/22 09:26:07;;;;;;;14.40;3.40;;;19.90;99.90;;;;;;4902204;29;20210;-71
2022/12/22 09:28:35;;;;;;;11.93;3.22;;;20.00;99.90;;;;;;4902302;29;20206;-72
2022/12/22 09:31:02;;;;;;;13.40;3.28;;;20.00;99.90;;;;;;4902556;29;20229;-70
2022/12/22 09:33:29;;;;;;;17.77;3.85;;;20.00;99.90;;;;;;4906654;29;20212;-69
2022/12/22 09:35:57;;;;;;;14.90;3.50;;;20.00;99.90;;;;;;4908346;29;20553;-70
2022/12/22 09:38:28;;;;;;;13.35;3.25;;;20.10;99.90;;;;;;4909292;29;20201;-70
2022/12/22 09:40:57;;;;;;;18.05;3.92;;;20.00;99.90;;;;;;4908787;29;20598;-71
2022/12/22 09:43:28;;;;;;;18.55;3.30;;;20.10;99.90;;;;;;4907979;29;20213;-70
2022/12/22 09:45:58;;;;;;;13.93;3.45;;;20.20;99.90;;;;;;4906968;29;20254;-70
2022/12/22 09:48:33;;;;;;;14.55;2.88;;;20.30;99.90;;;;;;4908225;29;20205;-73
2022/12/22 09:51:02;;;;;;;12.20;3.03;;;20.40;99.90;;;;;;4907699;29;20225;-70
2022/12/22 09:53:29;;;;;;;11.85;3.13;;;20.50;99.90;;;;;;4909485;29;20206;-70
2022/12/22 09:55:56;;;;;;;9.68;2.50;;;20.50;99.90;;;;;;4908750;29;20657;-70
2022/12/22 09:58:27;;;;;;;11.20;2.70;;;20.70;99.90;;;;;;4908228;29;20234;-71
2022/12/22 10:01:05;;;;;;;12.50;2.88;;;20.70;99.90;;;;;;4905903;29;20182;-71
2022/12/22 10:03:41;;;;;;;13.35;2.90;;;20.60;99.90;;;;;;4907244;29;20206;-71
2022/12/22 10:06:14;;;;;;;11.27;3.17;;;20.80;99.90;;;;;;4907532;29;20518;-72
2022/12/22 10:08:42;;;;;;;11.07;2.90;;;20.60;99.90;;;;;;4907285;29;20233;-72
2022/12/22 10:11:14;;;;;;;13.18;3.08;;;20.50;99.90;;;;;;4907269;29;20298;-72
2022/12/22 10:13:42;;;;;;;17.95;2.90;;;20.50;99.90;;;;;;4908402;29;20213;-72
2022/12/22 10:16:20;;;;;;;16.08;2.72;;;20.50;99.90;;;;;;4909695;29;20213;-71
2022/12/22 10:19:00;;;;;;;9.18;2.33;;;20.40;99.90;;;;;;4910631;29;20193;-71
2022/12/22 10:21:28;;;;;;;11.35;2.35;;;20.40;99.90;;;;;;4909311;29;20277;-71
2022/12/22 10:23:55;;;;;;;13.05;2.08;;;20.40;99.70;;;;;;4908875;29;20198;-71
2022/12/22 10:26:25;;;;;;;8.98;2.05;;;20.30;99.30;;;;;;4908669;29;20209;-71
2022/12/22 10:28:59;;;;;;;9.70;1.85;;;20.30;98.90;;;;;;4909509;29;20205;-71
2022/12/22 10:31:29;;;;;;;8.52;1.60;;;20.20;98.60;;;;;;4907592;29;20225;-71
2022/12/22 10:34:09;;;;;;;6.90;1.83;;;20.10;98.50;;;;;;4904303;29;20205;-69
2022/12/22 10:36:38;;;;;;;7.72;2.03;;;20.10;98.30;;;;;;4907908;29;20221;-68
2022/12/22 10:39:07;;;;;;;6.68;2.00;;;20.10;98.20;;;;;;4908639;29;20216;-68
2022/12/22 10:41:37;;;;;;;12.65;1.95;;;20.10;98.00;;;;;;4907606;29;20221;-69
2022/12/22 10:44:08;;;;;;;8.80;1.70;;;20.10;98.00;;;;;;4905922;29;20234;-69
2022/12/22 10:46:40;;;;;;;7.53;1.52;;;20.10;98.00;;;;;;4903530;29;20197;-69
2022/12/22 10:49:16;;;;;;;8.65;1.83;;;20.10;99.90;;;;;;4900872;29;20193;-69
2022/12/22 10:51:48;;;;;;;12.48;2.60;;;20.10;99.40;;;;;;4900690;29;20221;-72
2022/12/22 10:54:32;;;;;;;6.55;1.63;;;20.10;98.60;;;;;;4900631;29;20213;-69
2022/12/22 10:57:01;;;;;;;6.90;2.13;;;20.10;98.50;;;;;;4902296;29;20561;-70
2022/12/22 10:59:28;;;;;;;12.13;2.35;;;20.00;98.10;;;;;;4901212;29;20209;-72
2022/12/22 11:02:25;;;;;;;12.55;2.25;;;20.00;97.80;;;;;;4901358;29;20222;-69
2022/12/22 11:04:53;;;;;;;13.52;2.55;;;20.10;98.10;;;;;;4905299;29;20245;-66
2022/12/22 11:07:20;;;;;;;10.13;2.10;;;20.10;97.90;;;;;;4907177;29;20210;-67
2022/12/22 11:09:47;;;;;;;14.18;2.50;;;20.00;97.70;;;;;;4909206;29;20233;-66
2022/12/22 11:12:24;;;;;;;14.10;2.83;;;20.00;97.70;;;;;;4907999;29;20575;-68
2022/12/22 11:14:59;;;;;;;11.43;2.03;;;20.10;98.20;;;;;;4908516;29;20253;-68
2022/12/22 11:17:37;;;;;;;12.75;2.38;;;20.00;98.70;;;;;;4909593;29;20221;-68
2022/12/22 11:20:24;;;;;;;8.13;1.90;;;20.10;95.30;;;;;;4903641;29;20269;-67
2022/12/22 11:22:58;;;;;;;10.68;2.33;;;20.00;95.70;;;;;;4902655;29;20226;-68
2022/12/22 11:25:36;;;;;;;5.63;2.08;;;20.00;96.00;;;;;;4902119;29;20200;-68
2022/12/22 11:28:17;;;;;;;15.32;2.42;;;20.00;96.10;;;;;;4902641;29;20192;-67
2022/12/22 11:30:55;;;;;;;8.85;2.55;;;20.00;96.50;;;;;;4900905;29;20584;-68
2022/12/22 11:33:34;;;;;;;8.60;2.20;;;20.50;95.60;;;;;;4900068;29;20265;-69
2022/12/22 11:36:04;;;;;;;10.15;2.17;;;20.00;95.20;;;;;;4901175;29;20337;-68
2022/12/22 11:38:46;;;;;;;5.68;1.83;;;20.00;95.10;;;;;;4901124;29;20201;-68
2022/12/22 11:41:35;;;;;;;8.80;1.67;;;20.00;94.90;;;;;;4902888;29;20257;-70
2022/12/22 11:44:19;;;;;;;5.82;1.88;;;20.00;94.80;;;;;;4901832;29;20642;-71
2022/12/22 11:46:53;;;;;;;10.70;1.70;;;19.90;94.80;;;;;;4900196;29;20197;-72
2022/12/22 11:49:38;;;;;;;12.30;2.20;;;19.90;94.90;;;;;;4899408;29;20642;-72
2022/12/22 11:52:15;;;;;;;9.52;1.92;;;19.90;94.70;;;;;;4901290;29;20230;-70
2022/12/22 11:55:12;;;;;;;10.98;2.47;;;19.90;94.40;;;;;;4901568;29;20221;-70
2022/12/22 11:57:48;;;;;;;13.35;1.90;;;19.90;93.90;;;;;;4902827;29;20208;-70
2022/12/22 12:00:17;;;;;;;16.40;2.30;;;19.80;93.90;;;;;;4902602;29;20250;-70
2022/12/22 12:03:15;;;;;;;10.18;2.13;;;19.80;93.70;;;;;;4902458;29;20276;-70
2022/12/22 12:06:09;;;;;;;6.30;2.05;;;19.80;93.80;;;;;;4902486;29;20701;-69
2022/12/22 12:08:46;;;;;;;10.43;1.58;;;19.90;93.70;;;;;;4901266;29;20213;-70
2022/12/22 12:11:24;;;;;;;7.55;1.67;;;19.80;93.80;;;;;;4900075;29;20229;-70
2022/12/22 12:14:00;;;;;;;10.63;1.70;;;19.90;93.90;;;;;;4902150;29;20663;-72
2022/12/22 12:16:38;;;;;;;4.70;1.55;;;19.90;94.20;;;;;;4902506;29;20185;-71
2022/12/22 12:19:59;;;;;;;14.40;1.88;;;20.00;94.60;;;;;;4902592;29;20197;-71
2022/12/22 12:22:37;;;;;;;10.73;1.90;;;20.10;94.80;;;;;;4864270;29;20235;-72
2022/12/22 12:25:21;;;;;;;15.40;1.92;;;20.20;95.40;;;;;;4902998;29;20576;-73
2022/12/22 12:27:59;;;;;;;13.18;1.92;;;20.30;95.40;;;;;;4902920;29;20194;-76
2022/12/22 12:30:32;;;;;;;7.38;1.90;;;20.40;95.40;;;;;;4901651;29;20205;-74
2022/12/22 12:33:06;;;;;;;7.38;1.60;;;20.50;95.20;;;;;;4902084;29;20708;-74
2022/12/22 12:35:46;;;;;;;13.73;1.85;;;20.50;94.80;;;;;;4902901;29;20197;-74
2022/12/22 12:38:24;;;;;;;9.13;1.52;;;20.60;94.60;;;;;;4903939;29;20194;-73
2022/12/22 12:40:58;;;;;;;10.45;1.60;;;20.60;94.80;;;;;;4906167;29;20208;-74
2022/12/22 12:43:26;;;;;;;10.70;1.50;;;20.70;94.80;;;;;;4901944;29;20194;-73
2022/12/22 12:45:54;;;;;;;8.45;1.83;;;20.70;94.70;;;;;;4902734;29;20201;-72
2022/12/22 12:48:40;;;;;;;7.60;1.80;;;20.70;94.40;;;;;;4901585;29;20612;-72
2022/12/22 12:51:44;;;;;;;6.80;1.42;;;20.70;94.20;;;;;;4899635;29;20233;-72
2022/12/22 12:54:35;;;;;;;8.10;1.90;;;20.70;93.80;;;;;;4898621;29;20217;-71
2022/12/22 12:57:11;;;;;;;11.75;1.80;;;20.70;94.00;;;;;;4899120;29;20258;-72
2022/12/22 12:59:48;;;;;;;6.70;1.95;;;20.70;94.10;;;;;;4898585;29;20665;-70
2022/12/22 13:02:33;;;;;;;8.23;1.58;;;20.70;94.10;;;;;;4898896;29;20281;-70
2022/12/22 13:05:27;;;;;;;4.00;1.95;;;20.60;93.90;;;;;;4900883;29;20613;-71
2022/12/22 13:08:21;;;;;;;7.32;1.80;;;20.60;93.40;;;;;;4899065;29;20197;-70
2022/12/22 13:11:29;;;;;;;14.40;6.47;;;20.60;93.90;;;;;;4898711;29;20221;-71
2022/12/22 13:13:56;;;;;;;26.38;13.30;;;20.60;94.00;;;;;;4898687;29;20225;-70
2022/12/22 13:16:35;;;;;;;35.17;17.27;;;20.50;94.30;;;;;;4898432;29;20256;-69
2022/12/22 13:19:13;;;;;;;48.45;25.70;;;20.60;94.20;;;;;;4898528;29;20238;-69
2022/12/22 13:21:43;;;;;;;49.83;28.67;;;20.50;94.00;;;;;;4898428;29;20273;-69
2022/12/22 13:24:20;;;;;;;53.28;30.73;;;20.50;94.00;;;;;;4898468;29;20208;-69
2022/12/22 13:26:51;;;;;;;56.53;32.97;;;20.40;94.00;;;;;;4898447;29;20190;-69
2022/12/22 13:29:31;;;;;;;60.28;34.95;;;20.40;94.00;;;;;;4898402;29;20190;-69
2022/12/22 13:32:01;;;;;;;60.65;36.22;;;20.30;93.70;;;;;;4898283;29;20232;-69
2022/12/22 13:34:40;;;;;;;59.58;38.58;;;20.30;94.20;;;;;;4898416;29;20555;-69
2022/12/22 13:37:18;;;;;;;64.18;38.65;;;20.30;94.00;;;;;;4898326;29;20271;-69
2022/12/22 13:40:10;;;;;;;70.85;41.45;;;20.20;94.00;;;;;;4898307;29;20265;-72
2022/12/22 13:42:41;;;;;;;70.40;40.90;;;20.20;94.10;;;;;;4898202;29;20226;-71
2022/12/22 13:45:15;;;;;;;76.50;40.38;;;20.20;94.60;;;;;;4898265;29;20190;-72
2022/12/22 13:47:43;;;;;;;76.57;40.15;;;20.20;94.80;;;;;;4899002;29;20193;-71
2022/12/22 13:50:18;;;;;;;74.40;38.78;;;20.20;94.90;;;;;;4899120;29;20210;-72
2022/12/22 13:52:45;;;;;;;81.57;37.40;;;20.20;95.20;;;;;;4899232;29;20705;-70
2022/12/22 13:55:15;;;;;;;92.55;38.40;;;20.20;95.40;;;;;;4898576;29;20218;-71
2022/12/22 13:57:44;;;;;;;85.10;36.40;;;20.30;95.50;;;;;;4897949;29;20580;-73
2022/12/22 14:00:23;;;;;;;76.72;32.97;;;20.20;95.50;;;;;;4898121;29;20618;-73
2022/12/22 14:02:50;;;;;;;68.10;33.95;;;20.20;95.50;;;;;;4901010;29;20232;-73
2022/12/22 14:05:18;;;;;;;81.35;33.95;;;20.10;95.70;;;;;;4901558;29;20209;-72
2022/12/22 14:08:01;;;;;;;67.30;31.35;;;20.10;95.70;;;;;;4901519;29;20265;-73
2022/12/22 14:10:32;;;;;;;51.83;30.77;;;20.00;95.60;;;;;;4901411;29;20210;-73
2022/12/22 14:13:05;;;;;;;67.25;31.00;;;20.10;95.30;;;;;;4901409;29;20725;-73
2022/12/22 14:15:32;;;;;;;54.88;28.92;;;20.00;95.30;;;;;;4901437;29;20617;-73
2022/12/22 14:17:59;;;;;;;62.95;28.65;;;20.00;95.60;;;;;;4901079;29;20253;-73
2022/12/22 14:20:28;;;;;;;64.53;28.55;;;20.00;95.80;;;;;;4901315;29;20206;-73
2022/12/22 14:22:57;;;;;;;62.53;28.27;;;20.00;96.00;;;;;;4901193;29;20254;-73
2022/12/22 14:25:30;;;;;;;50.03;26.55;;;20.00;95.90;;;;;;4901245;29;20240;-73
2022/12/22 14:27:58;;;;;;;51.15;26.13;;;20.00;95.90;;;;;;4901245;29;20190;-73
2022/12/22 14:30:30;;;;;;;47.67;25.50;;;20.00;95.90;;;;;;4900780;29;20670;-72
2022/12/22 14:32:57;;;;;;;44.53;24.70;;;20.00;95.90;;;;;;4901037;29;20233;-73
2022/12/22 14:35:29;;;;;;;49.08;24.17;;;20.00;95.80;;;;;;4901169;29;20221;-73
2022/12/22 14:38:18;;;;;;;42.38;23.75;;;20.00;95.60;;;;;;4900804;29;20642;-75
2022/12/22 14:40:45;;;;;;;42.78;22.58;;;19.90;95.30;;;;;;4900892;29;20197;-75
2022/12/22 14:43:25;;;;;;;41.63;22.35;;;19.90;95.80;;;;;;4901079;29;20216;-77
2022/12/22 14:46:02;;;;;;;36.83;19.67;;;19.90;95.80;;;;;;4901013;29;20189;-74
2022/12/22 14:48:32;;;;;;;41.42;20.70;;;19.90;95.80;;;;;;4900847;29;20194;-74
2022/12/22 14:51:00;;;;;;;39.08;19.75;;;19.90;95.70;;;;;;4900763;29;20233;-74
2022/12/22 14:53:34;;;;;;;34.13;19.02;;;19.90;95.60;;;;;;4900979;29;20688;-74
2022/12/22 14:56:01;;;;;;;32.42;18.20;;;19.90;95.50;;;;;;4900733;29;20189;-74
2022/12/22 14:58:32;;;;;;;28.05;17.25;;;19.90;95.70;;;;;;4900320;29;20674;-74
2022/12/22 15:01:21;;;;;;;31.05;17.42;;;19.90;95.80;;;;;;4901249;29;20240;-74
2022/12/22 15:04:01;;;;;;;37.13;17.67;;;19.80;96.40;;;;;;4900881;29;20194;-74
2022/12/22 15:06:39;;;;;;;31.00;16.70;;;19.80;95.20;;;;;;4900539;29;20190;-74
2022/12/22 15:09:23;;;;;;;30.45;16.45;;;19.70;95.20;;;;;;4900431;29;20213;-74
2022/12/22 15:11:52;;;;;;;27.33;15.50;;;19.70;95.40;;;;;;4900123;29;20237;-74
2022/12/22 15:14:21;;;;;;;34.03;16.75;;;19.70;95.10;;;;;;4900375;29;20213;-75
2022/12/22 15:16:50;;;;;;;25.88;15.13;;;19.70;94.90;;;;;;4899998;29;20217;-74
2022/12/22 15:19:21;;;;;;;27.17;15.90;;;19.60;94.90;;;;;;4900543;29;20201;-74
2022/12/22 15:21:48;;;;;;;25.52;14.00;;;19.60;95.10;;;;;;4900153;29;20218;-74
2022/12/22 15:24:16;;;;;;;28.10;14.60;;;19.70;95.00;;;;;;4900161;29;20227;-74
2022/12/22 15:26:44;;;;;;;27.20;14.25;;;19.70;94.70;;;;;;4900103;29;20202;-74
2022/12/22 15:29:11;;;;;;;26.67;14.35;;;19.70;94.70;;;;;;4900184;29;20208;-75
2022/12/22 15:31:39;;;;;;;24.17;13.77;;;19.80;94.90;;;;;;4899958;29;20229;-74
2022/12/22 15:34:13;;;;;;;28.83;13.68;;;19.80;94.90;;;;;;4899986;29;20213;-76
2022/12/22 15:36:40;;;;;;;24.80;12.93;;;20.00;94.90;;;;;;4899670;29;20225;-74
2022/12/22 15:39:14;;;;;;;24.67;12.48;;;19.80;94.80;;;;;;4899908;29;20209;-74
2022/12/22 15:41:41;;;;;;;22.40;11.80;;;19.90;94.70;;;;;;4899834;29;20249;-74
2022/12/22 15:44:07;;;;;;;21.10;11.68;;;19.90;94.60;;;;;;4899791;29;20202;-74
2022/12/22 15:46:35;;;;;;;19.95;11.93;;;19.90;94.50;;;;;;4899413;29;20573;-74
2022/12/22 15:49:02;;;;;;;28.40;11.77;;;19.90;94.40;;;;;;4899697;29;20205;-74
2022/12/22 15:51:32;;;;;;;17.90;11.07;;;19.80;94.30;;;;;;4900540;29;20236;-73
2022/12/22 15:53:59;;;;;;;22.20;10.95;;;19.80;94.30;;;;;;4900300;29;20677;-73
2022/12/22 15:56:29;;;;;;;25.83;10.90;;;19.90;94.30;;;;;;4900630;29;20205;-74
2022/12/22 15:58:56;;;;;;;21.98;10.70;;;19.80;94.10;;;;;;4899556;29;20197;-73
2022/12/22 16:01:23;;;;;;;25.20;11.02;;;19.80;94.10;;;;;;4900143;29;20225;-74
2022/12/22 16:03:50;;;;;;;19.73;9.95;;;19.80;94.10;;;;;;4899682;29;20226;-73
2022/12/22 16:06:18;;;;;;;22.30;9.63;;;19.90;94.20;;;;;;4899397;29;20201;-73
2022/12/22 16:08:50;;;;;;;21.65;9.82;;;19.90;94.20;;;;;;4899332;29;20245;-73
2022/12/22 16:11:18;;;;;;;13.65;8.98;;;19.90;94.10;;;;;;4898904;29;20709;-73
2022/12/22 16:13:45;;;;;;;27.45;8.95;;;19.90;94.00;;;;;;4899279;29;20388;-73
2022/12/22 16:16:12;;;;;;;26.73;9.50;;;19.90;94.00;;;;;;4899195;29;20209;-74
2022/12/22 16:18:39;;;;;;;31.73;8.82;;;19.90;94.20;;;;;;4904201;29;20213;-75
2022/12/22 16:21:11;;;;;;;27.25;8.15;;;19.90;94.40;;;;;;4907113;29;20288;-74
2022/12/22 16:23:38;;;;;;;20.60;7.60;;;19.90;94.70;;;;;;4907370;29;20194;-75
2022/12/22 16:26:09;;;;;;;28.90;8.77;;;19.90;95.20;;;;;;4907520;29;20213;-75
2022/12/22 16:28:37;;;;;;;16.95;7.78;;;19.90;95.30;;;;;;4908673;29;20213;-75
2022/12/22 16:31:04;;;;;;;14.75;7.85;;;20.00;95.80;;;;;;4907783;29;20231;-75
2022/12/22 16:33:31;;;;;;;21.15;8.15;;;20.00;96.00;;;;;;4908091;29;20209;-75
2022/12/22 16:35:59;;;;;;;22.85;8.13;;;20.00;96.40;;;;;;4906755;29;20212;-75
2022/12/22 16:38:28;;;;;;;18.58;7.70;;;20.00;96.50;;;;;;4907017;29;20234;-74
2022/12/22 16:40:55;;;;;;;15.98;7.60;;;20.00;96.70;;;;;;4906962;29;20297;-73
2022/12/22 16:43:29;;;;;;;21.83;7.32;;;20.00;97.00;;;;;;4906911;29;20216;-74
2022/12/22 16:45:58;;;;;;;16.88;6.80;;;20.00;97.20;;;;;;4907384;29;20197;-74
2022/12/22 16:48:32;;;;;;;12.80;6.32;;;20.10;97.50;;;;;;4907235;29;20237;-74
2022/12/22 16:51:02;;;;;;;15.85;6.38;;;20.10;97.70;;;;;;4907023;29;20249;-73
2022/12/22 16:53:30;;;;;;;13.43;6.57;;;20.20;97.90;;;;;;4905505;29;20685;-72
2022/12/22 16:55:58;;;;;;;19.92;6.78;;;20.10;97.90;;;;;;4900905;29;20652;-71
2022/12/22 16:58:26;;;;;;;14.50;6.05;;;20.20;98.00;;;;;;4898629;29;20194;-70
2022/12/22 17:00:53;;;;;;;20.60;6.10;;;20.20;97.80;;;;;;4898511;29;20209;-70
2022/12/22 17:03:22;;;;;;;18.67;5.28;;;20.10;98.10;;;;;;4898573;29;20213;-70
2022/12/22 17:05:52;;;;;;;16.50;6.07;;;20.10;97.60;;;;;;4898582;29;20213;-70
2022/12/22 17:08:22;;;;;;;19.63;6.18;;;20.00;97.50;;;;;;4898514;29;20208;-71
2022/12/22 17:10:50;;;;;;;16.13;6.25;;;20.00;97.70;;;;;;4898439;29;20201;-70
2022/12/22 17:13:17;;;;;;;13.38;5.68;;;19.80;97.90;;;;;;4898407;29;20244;-70
2022/12/22 17:15:45;;;;;;;16.23;6.00;;;19.90;97.80;;;;;;4898549;29;20194;-70
2022/12/22 17:18:17;;;;;;;14.50;5.38;;;19.90;97.90;;;;;;4898458;29;20619;-70
2022/12/22 17:20:45;;;;;;;17.58;5.65;;;19.90;97.50;;;;;;4898337;29;20209;-70
2022/12/22 17:23:26;;;;;;;10.80;4.97;;;19.90;97.00;;;;;;4898403;29;20201;-70
2022/12/22 17:25:53;;;;;;;11.68;5.55;;;19.80;97.10;;;;;;4898455;29;20193;-70
2022/12/22 17:28:20;;;;;;;12.50;5.00;;;19.80;97.20;;;;;;4898369;29;20210;-70
2022/12/22 17:30:48;;;;;;;10.52;5.18;;;19.70;97.20;;;;;;4898531;29;20201;-70
2022/12/22 17:33:15;;;;;;;12.25;5.72;;;19.60;97.20;;;;;;4897989;29;20229;-70
2022/12/22 17:35:43;;;;;;;11.30;4.72;;;19.60;97.20;;;;;;4899688;29;20209;-70
2022/12/22 17:38:13;;;;;;;8.63;4.82;;;19.60;97.20;;;;;;4902082;29;20220;-70
2022/12/22 17:40:40;;;;;;;11.05;4.78;;;19.60;97.20;;;;;;4903266;29;20247;-70
2022/12/22 17:43:11;;;;;;;9.98;4.65;;;19.50;97.20;;;;;;4901885;29;20722;-70
2022/12/22 17:45:38;;;;;;;17.38;5.00;;;19.50;97.10;;;;;;4901940;29;20196;-70
2022/12/22 17:48:07;;;;;;;10.95;4.80;;;19.50;97.20;;;;;;4902127;29;20205;-69
2022/12/22 17:50:34;;;;;;;8.57;4.55;;;19.60;96.90;;;;;;4901858;29;20212;-69
2022/12/22 17:53:02;;;;;;;7.45;4.47;;;19.60;96.70;;;;;;4901653;29;20286;-69
2022/12/22 17:55:29;;;;;;;14.70;3.92;;;19.60;96.90;;;;;;4901919;29;20214;-72
2022/12/22 17:57:56;;;;;;;12.18;3.95;;;19.70;97.10;;;;;;4901392;29;20617;-71
2022/12/22 18:00:25;;;;;;;14.30;3.38;;;19.80;97.50;;;;;;4901697;29;20213;-71
2022/12/22 18:02:52;;;;;;;8.27;2.60;;;19.80;93.60;;;;;;4901271;29;20706;-71
2022/12/22 18:05:23;;;;;;;9.75;3.35;;;19.70;92.60;;;;;;4901662;29;20205;-72
2022/12/22 18:07:50;;;;;;;26.98;3.80;;;19.60;91.50;;;;;;4901814;29;20198;-71
2022/12/22 18:10:25;;;;;;;5.82;3.15;;;19.50;91.60;;;;;;4901412;29;20213;-71
2022/12/22 18:12:52;;;;;;;11.75;2.92;;;19.50;91.60;;;;;;4901435;29;20228;-70
2022/12/22 18:15:20;;;;;;;11.02;3.00;;;19.60;91.10;;;;;;4901154;29;20210;-70
2022/12/22 18:17:46;;;;;;;18.13;3.28;;;19.60;90.90;;;;;;4901399;29;20206;-70
2022/12/22 18:20:14;;;;;;;9.70;3.13;;;19.60;90.80;;;;;;4901420;29;20205;-70
2022/12/22 18:22:43;;;;;;;8.63;3.03;;;19.60;90.60;;;;;;4901357;29;20563;-70
2022/12/22 18:25:17;;;;;;;13.30;2.83;;;19.60;90.30;;;;;;4901680;29;20206;-70
2022/12/22 18:27:43;;;;;;;14.50;2.80;;;19.70;90.20;;;;;;4901241;29;20193;-70
2022/12/22 18:30:16;;;;;;;8.07;2.67;;;19.70;90.30;;;;;;4901410;29;20213;-70
2022/12/22 18:32:43;;;;;;;7.63;2.78;;;19.70;90.30;;;;;;4901132;29;20245;-70
2022/12/22 18:35:10;;;;;;;8.32;2.42;;;19.70;90.50;;;;;;4901116;29;20218;-70
2022/12/22 18:37:37;;;;;;;5.32;2.28;;;19.80;90.50;;;;;;4901051;29;20210;-70
2022/12/22 18:40:23;;;;;;;6.40;2.65;;;19.80;90.40;;;;;;4900778;29;20606;-70
2022/12/22 18:42:51;;;;;;;4.82;2.42;;;19.70;90.20;;;;;;4900229;29;20232;-70
2022/12/22 18:45:18;;;;;;;8.38;2.88;;;19.80;90.40;;;;;;4901106;29;20244;-70
2022/12/22 18:47:45;;;;;;;12.77;2.72;;;19.80;90.60;;;;;;4900454;29;20208;-70
2022/12/22 18:50:15;;;;;;;12.05;3.03;;;19.80;90.90;;;;;;4900929;29;20201;-70
2022/12/22 18:52:43;;;;;;;6.43;2.72;;;19.80;91.20;;;;;;4900814;29;20236;-70
2022/12/22 18:55:16;;;;;;;9.32;2.42;;;19.80;91.30;;;;;;4900591;29;20213;-70